createdAt,value
2022-12-06T00:02:15.085Z,8.30
2022-12-06T00:07:19.845Z,8.87
2022-12-06T00:12:24.042Z,8.07
2022-12-06T00:17:27.865Z,7.03
2022-12-06T00:22:34.077Z,6.53
2022-12-06T00:27:39.685Z,6.83
2022-12-06T00:32:43.453Z,7.43
2022-12-06T00:37:45.160Z,7.10
2022-12-06T00:42:49.896Z,7.03
2022-12-06T00:47:51.568Z,6.37
2022-12-06T00:52:55.418Z,5.73
2022-12-06T00:57:57.147Z,7.50
2022-12-06T01:02:58.853Z,7.50
2022-12-06T01:08:04.146Z,7.00
2022-12-06T01:13:06.547Z,7.13
2022-12-06T01:18:08.186Z,7.07
2022-12-06T01:23:12.796Z,7.57
2022-12-06T01:28:14.483Z,7.73
2022-12-06T01:33:18.477Z,7.40
2022-12-06T01:38:20.203Z,7.00
2022-12-06T01:43:48.449Z,7.17
2022-12-06T01:48:58.955Z,7.43
2022-12-06T01:54:02.404Z,6.80
2022-12-06T01:59:06.434Z,5.80
2022-12-06T02:04:10.629Z,6.50
2022-12-06T02:09:16.065Z,6.03
2022-12-06T02:14:24.640Z,6.27
2022-12-06T02:19:59.608Z,6.23
2022-12-06T02:25:34.351Z,5.90
2022-12-06T02:30:50.112Z,7.00
2022-12-06T02:36:00.745Z,6.83
2022-12-06T02:41:12.668Z,6.33
2022-12-06T02:46:18.651Z,7.23
2022-12-06T02:51:20.732Z,7.13
2022-12-06T02:56:26.330Z,6.97
2022-12-06T03:01:33.360Z,6.70
2022-12-06T03:06:44.519Z,6.60
2022-12-06T03:11:48.895Z,7.30
2022-12-06T03:17:00.520Z,7.00
2022-12-06T03:22:09.387Z,7.30
2022-12-06T03:27:16.752Z,7.50
2022-12-06T03:32:21.207Z,6.27
2022-12-06T03:37:27.079Z,7.00
2022-12-06T03:42:34.488Z,6.60
2022-12-06T03:47:47.352Z,7.50
2022-12-06T03:52:54.016Z,6.60
2022-12-06T03:58:01.800Z,6.03
2022-12-06T04:03:04.539Z,5.67
2022-12-06T04:08:06.289Z,5.87
2022-12-06T04:13:08.857Z,6.27
2022-12-06T04:18:14.154Z,6.53
2022-12-06T04:23:17.563Z,6.80
2022-12-06T04:28:39.100Z,6.83
2022-12-06T04:33:59.096Z,6.63
2022-12-06T04:39:01.251Z,6.03
2022-12-06T04:44:06.835Z,6.53
2022-12-06T04:49:10.984Z,6.03
2022-12-06T04:54:15.069Z,6.23
2022-12-06T04:59:20.210Z,8.48
2022-12-06T05:04:22.649Z,6.93
2022-12-06T05:09:26.691Z,7.67
2022-12-06T05:14:28.560Z,8.07
2022-12-06T05:19:32.623Z,6.03
2022-12-06T05:24:39.085Z,7.00
2022-12-06T05:29:43.101Z,7.13
2022-12-06T05:34:47.200Z,7.53
2022-12-06T05:39:48.864Z,7.80
2022-12-06T05:44:52.845Z,7.27
2022-12-06T05:49:57.380Z,6.83
2022-12-06T05:55:00.053Z,7.53
2022-12-06T06:00:02.427Z,8.00
2022-12-06T06:05:11.547Z,7.50
2022-12-06T06:10:18.101Z,7.87
2022-12-06T06:15:22.262Z,7.47
2022-12-06T06:20:24.055Z,7.13
2022-12-06T06:25:30.572Z,6.43
2022-12-06T06:30:34.382Z,7.20
2022-12-06T06:35:44.069Z,6.40
2022-12-06T06:40:51.122Z,5.30
2022-12-06T06:45:56.642Z,5.10
2022-12-06T06:51:11.530Z,5.13
2022-12-06T06:56:13.408Z,4.90
2022-12-06T07:01:23.201Z,5.10
2022-12-06T07:06:27.374Z,4.10
2022-12-06T07:11:32.122Z,4.10
2022-12-06T07:16:33.965Z,3.97
2022-12-06T07:21:35.978Z,4.03
2022-12-06T07:26:43.292Z,4.00
2022-12-06T07:31:45.951Z,4.80
2022-12-06T07:36:47.661Z,3.83
2022-12-06T07:42:07.847Z,3.50
2022-12-06T07:47:27.470Z,3.50
2022-12-06T07:52:38.059Z,2.83
2022-12-06T07:57:43.411Z,2.50
2022-12-06T08:02:48.162Z,2.57
2022-12-06T08:07:49.961Z,2.30
2022-12-06T08:12:54.466Z,2.70
2022-12-06T08:17:56.258Z,2.70
2022-12-06T08:23:00.267Z,3.27
2022-12-06T08:28:04.649Z,3.10
2022-12-06T08:33:09.336Z,2.30
2022-12-06T08:38:13.402Z,2.93
2022-12-06T08:43:16.541Z,2.70
2022-12-06T08:48:19.414Z,2.30
2022-12-06T08:53:23.773Z,2.70
2022-12-06T08:58:28.037Z,3.10
2022-12-06T09:03:32.230Z,3.63
2022-12-06T09:08:36.891Z,3.40
2022-12-06T09:13:39.524Z,4.40
2022-12-06T09:18:41.885Z,4.57
2022-12-06T09:23:44.256Z,5.50
2022-12-06T09:28:53.798Z,5.73
2022-12-06T09:33:58.826Z,5.30
2022-12-06T09:39:08.229Z,5.43
2022-12-06T09:44:31.387Z,6.17
2022-12-06T09:49:38.781Z,4.33
2022-12-06T09:54:54.534Z,4.43
2022-12-06T10:00:22.579Z,3.53
2022-12-06T10:06:06.407Z,3.67
2022-12-06T10:11:12.703Z,3.90
2022-12-06T10:16:23.303Z,3.33
2022-12-06T10:21:45.699Z,3.30
2022-12-06T10:26:57.527Z,3.00
2022-12-06T10:32:18.043Z,2.30
2022-12-06T10:37:42.565Z,2.73
2022-12-06T10:43:09.656Z,1.47
2022-12-06T10:48:28.853Z,1.50
2022-12-06T10:53:33.348Z,1.33
2022-12-06T10:58:49.360Z,1.30
2022-12-06T11:04:09.992Z,1.60
2022-12-06T11:09:24.774Z,1.50
2022-12-06T11:14:35.767Z,1.70
2022-12-06T11:19:45.718Z,1.60
2022-12-06T11:25:22.157Z,1.40
2022-12-06T11:30:28.832Z,1.20
2022-12-06T11:35:31.507Z,1.10
2022-12-06T11:40:48.414Z,1.10
2022-12-06T11:45:52.440Z,3.97
2022-12-06T11:50:55.093Z,1.10
2022-12-06T11:56:30.251Z,0.80
2022-12-06T12:01:46.599Z,1.47
2022-12-06T12:06:49.021Z,0.97
2022-12-06T12:12:02.542Z,1.10
2022-12-06T12:17:15.294Z,2.60
2022-12-06T12:22:35.807Z,1.60
2022-12-06T12:27:47.819Z,0.80
2022-12-06T12:33:13.461Z,0.80
2022-12-06T12:38:25.834Z,0.60
2022-12-06T12:43:32.763Z,0.70
2022-12-06T12:48:43.931Z,0.80
2022-12-06T12:53:46.213Z,0.70
2022-12-06T12:58:52.558Z,0.70
2022-12-06T13:04:01.179Z,0.98
2022-12-06T13:09:06.047Z,0.75
2022-12-06T13:14:22.195Z,0.57
2022-12-06T13:19:31.542Z,0.95
2022-12-06T13:24:38.900Z,0.70
2022-12-06T13:29:48.443Z,0.77
2022-12-06T13:34:58.678Z,0.90
2022-12-06T13:40:05.915Z,0.85
2022-12-06T13:45:27.568Z,0.80
2022-12-06T13:50:34.316Z,1.00
2022-12-06T13:55:48.493Z,1.00
2022-12-06T14:00:50.806Z,1.13
2022-12-06T14:11:27.320Z,1.40
2022-12-06T14:16:31.443Z,1.10
2022-12-06T14:21:39.219Z,1.37
2022-12-06T14:26:47.543Z,2.13
2022-12-06T14:31:51.566Z,1.93
2022-12-06T14:36:58.030Z,1.90
2022-12-06T14:42:33.450Z,1.73
2022-12-06T14:47:40.918Z,1.60
2022-12-06T14:53:01.177Z,2.30
2022-12-06T14:58:17.719Z,2.50
2022-12-06T15:03:25.663Z,2.83
2022-12-06T15:08:27.546Z,2.60
2022-12-06T15:13:32.008Z,3.40
2022-12-06T15:18:55.064Z,3.50
2022-12-06T15:23:59.755Z,3.30
2022-12-06T15:29:01.526Z,3.97
2022-12-06T15:34:23.405Z,4.90
2022-12-06T15:39:26.179Z,5.70
2022-12-06T15:44:30.132Z,5.87
2022-12-06T15:49:32.956Z,6.20
2022-12-06T15:54:39.758Z,5.07
2022-12-06T15:59:41.549Z,4.83
2022-12-06T16:04:45.569Z,5.43
2022-12-06T16:09:48.015Z,6.17
2022-12-06T16:14:53.499Z,6.57
2022-12-06T16:20:13.895Z,11.67
2022-12-06T16:25:16.588Z,9.77
2022-12-06T16:30:31.053Z,9.17
2022-12-06T16:35:32.836Z,9.83
2022-12-06T16:40:35.148Z,11.83
2022-12-06T16:45:44.812Z,12.23
2022-12-06T16:50:47.420Z,12.53
2022-12-06T16:55:51.498Z,12.80
2022-12-06T17:00:54.716Z,17.87
2022-12-06T17:05:59.784Z,27.50
2022-12-06T17:11:22.579Z,26.13
2022-12-06T17:16:24.377Z,22.77
2022-12-06T17:21:28.754Z,27.43
2022-12-06T17:26:34.397Z,24.73
2022-12-06T17:31:39.589Z,27.73
2022-12-06T17:36:47.953Z,23.93
2022-12-06T17:42:08.427Z,31.93
2022-12-06T17:47:10.112Z,30.10
2022-12-06T17:52:13.023Z,27.53
2022-12-06T17:57:18.782Z,22.87
2022-12-06T18:02:24.781Z,22.03
2022-12-06T18:07:29.070Z,19.77
2022-12-06T18:12:35.163Z,18.17
2022-12-06T18:17:37.060Z,16.73
2022-12-06T18:22:38.732Z,17.03
2022-12-06T18:27:40.491Z,13.57
2022-12-06T18:32:44.413Z,13.07
2022-12-06T18:37:46.197Z,11.90
2022-12-06T18:42:53.019Z,13.10
2022-12-06T18:47:58.729Z,13.63
2022-12-06T18:53:06.199Z,10.93
2022-12-06T18:58:07.965Z,13.50
2022-12-06T19:03:17.124Z,12.93
2022-12-06T19:08:18.916Z,12.67
2022-12-06T19:13:20.601Z,13.23
2022-12-06T19:18:22.362Z,14.47
2022-12-06T19:23:28.675Z,14.77
2022-12-06T19:28:38.601Z,15.97
2022-12-06T19:33:43.575Z,14.43
2022-12-06T19:38:50.263Z,15.07
2022-12-06T19:44:15.345Z,16.03
2022-12-06T19:49:23.279Z,14.83
2022-12-06T19:54:31.317Z,13.23
2022-12-06T19:59:39.321Z,13.53
2022-12-06T20:04:46.482Z,14.97
2022-12-06T20:09:48.202Z,12.50
2022-12-06T20:14:52.232Z,12.53
2022-12-06T20:20:01.408Z,10.83
2022-12-06T20:25:03.538Z,11.80
2022-12-06T20:30:06.396Z,12.43
2022-12-06T20:35:11.468Z,12.27
2022-12-06T20:40:13.781Z,11.03
2022-12-06T20:45:20.421Z,10.23
2022-12-06T20:50:25.694Z,10.90
2022-12-06T20:55:29.801Z,9.97
2022-12-06T21:00:34.072Z,10.30
2022-12-06T21:05:45.042Z,11.17
2022-12-06T21:11:20.708Z,10.60
2022-12-06T21:16:13.560Z,13.67
2022-12-06T21:21:25.852Z,16.90
2022-12-06T21:26:28.497Z,17.20
2022-12-06T21:31:34.302Z,16.40
2022-12-06T21:36:36.984Z,18.47
2022-12-06T21:41:41.332Z,17.67
2022-12-06T21:46:45.603Z,14.03
2022-12-06T21:51:47.491Z,14.97
2022-12-06T21:56:51.858Z,16.20
2022-12-06T22:01:54.836Z,16.60
2022-12-06T22:06:57.676Z,13.43
2022-12-06T22:12:01.706Z,13.93
2022-12-06T22:17:05.620Z,13.27
2022-12-06T22:22:10.733Z,13.13
2022-12-06T22:27:16.708Z,16.60
2022-12-06T22:32:18.568Z,17.27
2022-12-06T22:37:28.243Z,16.23
2022-12-06T22:42:33.513Z,17.93
2022-12-06T22:47:37.997Z,35.47
2022-12-06T22:52:42.864Z,24.47
2022-12-06T22:57:46.997Z,17.27
2022-12-06T23:02:48.873Z,16.73
2022-12-06T23:07:50.604Z,18.60
2022-12-06T23:12:52.278Z,13.70
2022-12-06T23:17:56.428Z,8.47
2022-12-06T23:22:58.080Z,7.20
2022-12-06T23:28:02.505Z,6.17
2022-12-06T23:33:06.791Z,8.40
2022-12-06T23:38:10.818Z,7.27
2022-12-06T23:43:15.094Z,8.10
2022-12-06T23:48:21.278Z,6.57
2022-12-06T23:53:25.921Z,6.20
2022-12-06T23:58:29.335Z,6.97
